Hlavní strana
METAR-TAF:

METAR-TAF

Letiště :

Bahrajn, Bahrajn

zeměpisná šířka: 26-16N, zeměpisná délka: 050-39E, výška: 2 m

Aktuální stav počasí

Zpráva byla vytvořena před 19 minutami, v 02:00 UTC
Severozápadní vítr 27 kt
Teplota 21°C
Vlhkost vzduchu 69%
Tlak 1013 hPa
Viditelnost: 2500 m
zvířený prach

METAR: OBBI 260200Z 32027KT 2500 BLDU NSC 21/15 Q1013 NOSIG

Čas: 05:19 (02:19 UTC)

Předpověď počasí

Zpráva byla vytvořena před 3 hodinami a 19 minutami, v 23:00 UTC
Předpověď platná od 26 v 00 UTC do 27 v 06 UTC
Severoseverozápadní vítr 17 kt s nárazy do 27 kt
Viditelnost: 6000 m
Dočasný
od 26 v 00 UTC do 26 v 08 UTC
Viditelnost: 3000 m
rozsáhlý prach
Pravděpodobnost 30% :
Dočasný
od 26 v 00 UTC do 26 v 05 UTC
Viditelnost: 1200 m
Změna
od 26 v 15 UTC do 26 v 17 UTC
Severozápadní vítr 15 kt

TAF: OBBI 252300Z 2600/2706 33017G27KT 6000 NSC TEMPO 2600/2608 3000 DU PROB30 TEMPO 2600/2605 1200 VV/// BECMG 2615/2617 32015KT

Stav a předpovědi počasí z více než 4 000 letišť (zprávy METAR a TAF).

Červené a žluté tečky na mapě představují dostupné meteorologické stanice.

Když kurzor umístíte na tečku, zobrazí se název stanice.

Pak kliknutím zobrazíte stav a předpověď počasí.

Chcete-li změnit mapu, kliknutím na zelené tlačítko se znaménkem +mapu přiblížíte, kliknutím na zelené tlačítko se znaménkem – mapu oddálíte a kliknutím na zelené šipky přejdete na sousední mapy.


METAR-TAF: